sensor_id;sensor_type;location;lat;lon;timestamp;P1;durP1;ratioP1;P2;durP2;ratioP2
49488;SDS011;35382;51.484;11.476;2022-12-17T00:01:45;58.08;;;31.52;;
49488;SDS011;35382;51.484;11.476;2022-12-17T00:03:44;56.17;;;31.35;;
49488;SDS011;35382;51.484;11.476;2022-12-17T00:05:44;56.33;;;31.50;;
49488;SDS011;35382;51.484;11.476;2022-12-17T00:07:43;60.92;;;34.10;;
49488;SDS011;35382;51.484;11.476;2022-12-17T00:09:43;57.42;;;29.55;;
49488;SDS011;35382;51.484;11.476;2022-12-17T00:11:42;58.10;;;30.88;;
49488;SDS011;35382;51.484;11.476;2022-12-17T00:13:42;57.92;;;31.48;;
49488;SDS011;35382;51.484;11.476;2022-12-17T00:15:41;54.85;;;30.38;;
49488;SDS011;35382;51.484;11.476;2022-12-17T00:17:41;59.05;;;32.33;;
49488;SDS011;35382;51.484;11.476;2022-12-17T00:19:40;55.47;;;30.85;;
49488;SDS011;35382;51.484;11.476;2022-12-17T00:21:40;58.30;;;31.85;;
49488;SDS011;35382;51.484;11.476;2022-12-17T00:23:39;59.17;;;32.58;;
49488;SDS011;35382;51.484;11.476;2022-12-17T00:25:39;60.25;;;31.33;;
49488;SDS011;35382;51.484;11.476;2022-12-17T00:27:38;54.05;;;30.08;;
49488;SDS011;35382;51.484;11.476;2022-12-17T00:29:38;60.08;;;32.47;;
49488;SDS011;35382;51.484;11.476;2022-12-17T00:31:39;58.47;;;33.58;;
49488;SDS011;35382;51.484;11.476;2022-12-17T00:33:39;56.10;;;31.90;;
49488;SDS011;35382;51.484;11.476;2022-12-17T00:35:39;53.53;;;30.30;;
49488;SDS011;35382;51.484;11.476;2022-12-17T00:37:38;58.55;;;31.05;;
49488;SDS011;35382;51.484;11.476;2022-12-17T00:39:38;56.28;;;31.23;;
49488;SDS011;35382;51.484;11.476;2022-12-17T00:41:37;58.50;;;30.73;;
49488;SDS011;35382;51.484;11.476;2022-12-17T00:43:36;56.65;;;30.13;;
49488;SDS011;35382;51.484;11.476;2022-12-17T00:45:36;58.33;;;31.65;;
49488;SDS011;35382;51.484;11.476;2022-12-17T00:47:39;57.85;;;30.08;;
49488;SDS011;35382;51.484;11.476;2022-12-17T00:49:38;53.45;;;30.17;;
49488;SDS011;35382;51.484;11.476;2022-12-17T00:51:39;58.47;;;31.70;;
49488;SDS011;35382;51.484;11.476;2022-12-17T00:53:39;61.03;;;32.30;;
49488;SDS011;35382;51.484;11.476;2022-12-17T00:55:38;52.88;;;29.67;;
49488;SDS011;35382;51.484;11.476;2022-12-17T00:57:38;59.28;;;32.33;;
49488;SDS011;35382;51.484;11.476;2022-12-17T00:59:37;58.88;;;31.15;;
49488;SDS011;35382;51.484;11.476;2022-12-17T01:01:37;60.78;;;31.45;;
49488;SDS011;35382;51.484;11.476;2022-12-17T01:03:36;58.42;;;31.45;;
49488;SDS011;35382;51.484;11.476;2022-12-17T01:05:36;65.28;;;34.67;;
49488;SDS011;35382;51.484;11.476;2022-12-17T01:07:35;61.33;;;32.70;;
49488;SDS011;35382;51.484;11.476;2022-12-17T01:09:35;61.03;;;32.22;;
49488;SDS011;35382;51.484;11.476;2022-12-17T01:11:35;56.10;;;30.48;;
49488;SDS011;35382;51.484;11.476;2022-12-17T01:13:34;57.15;;;31.17;;
49488;SDS011;35382;51.484;11.476;2022-12-17T01:15:34;61.63;;;32.88;;
49488;SDS011;35382;51.484;11.476;2022-12-17T01:17:33;60.30;;;33.60;;
49488;SDS011;35382;51.484;11.476;2022-12-17T01:19:33;62.67;;;33.20;;
49488;SDS011;35382;51.484;11.476;2022-12-17T01:21:34;60.55;;;32.42;;
49488;SDS011;35382;51.484;11.476;2022-12-17T01:23:33;63.72;;;33.30;;
49488;SDS011;35382;51.484;11.476;2022-12-17T01:25:33;64.40;;;33.42;;
49488;SDS011;35382;51.484;11.476;2022-12-17T01:35:31;57.10;;;29.75;;
49488;SDS011;35382;51.484;11.476;2022-12-17T01:56:15;58.05;;;30.25;;
49488;SDS011;35382;51.484;11.476;2022-12-17T02:04:26;66.03;;;33.30;;
49488;SDS011;35382;51.484;11.476;2022-12-17T02:06:26;62.63;;;33.05;;
49488;SDS011;35382;51.484;11.476;2022-12-17T02:21:29;49.97;;;27.88;;
49488;SDS011;35382;51.484;11.476;2022-12-17T02:23:34;48.05;;;27.67;;
49488;SDS011;35382;51.484;11.476;2022-12-17T02:27:58;54.83;;;29.10;;
49488;SDS011;35382;51.484;11.476;2022-12-17T02:32:31;55.03;;;28.73;;
49488;SDS011;35382;51.484;11.476;2022-12-17T02:34:41;55.65;;;28.33;;
49488;SDS011;35382;51.484;11.476;2022-12-17T02:36:47;53.92;;;28.20;;
49488;SDS011;35382;51.484;11.476;2022-12-17T02:38:46;50.70;;;27.00;;
49488;SDS011;35382;51.484;11.476;2022-12-17T02:43:40;51.47;;;26.67;;
49488;SDS011;35382;51.484;11.476;2022-12-17T02:45:39;49.33;;;27.20;;
49488;SDS011;35382;51.484;11.476;2022-12-17T02:47:46;52.17;;;27.90;;
49488;SDS011;35382;51.484;11.476;2022-12-17T02:49:47;50.38;;;27.75;;
49488;SDS011;35382;51.484;11.476;2022-12-17T02:51:49;52.33;;;27.88;;
49488;SDS011;35382;51.484;11.476;2022-12-17T02:53:49;54.50;;;28.58;;
49488;SDS011;35382;51.484;11.476;2022-12-17T02:55:51;50.72;;;28.23;;
49488;SDS011;35382;51.484;11.476;2022-12-17T02:57:52;57.45;;;28.65;;
49488;SDS011;35382;51.484;11.476;2022-12-17T03:00:16;56.92;;;29.40;;
49488;SDS011;35382;51.484;11.476;2022-12-17T03:02:16;51.65;;;29.13;;
49488;SDS011;35382;51.484;11.476;2022-12-17T03:04:16;51.78;;;29.08;;
49488;SDS011;35382;51.484;11.476;2022-12-17T03:09:18;49.17;;;26.67;;
49488;SDS011;35382;51.484;11.476;2022-12-17T03:11:18;56.15;;;29.67;;
49488;SDS011;35382;51.484;11.476;2022-12-17T03:13:24;57.17;;;29.17;;
49488;SDS011;35382;51.484;11.476;2022-12-17T03:15:26;56.30;;;29.27;;
49488;SDS011;35382;51.484;11.476;2022-12-17T03:19:59;53.53;;;28.65;;
49488;SDS011;35382;51.484;11.476;2022-12-17T03:21:59;54.95;;;29.23;;
49488;SDS011;35382;51.484;11.476;2022-12-17T03:23:58;55.60;;;28.95;;
49488;SDS011;35382;51.484;11.476;2022-12-17T03:26:01;57.08;;;29.45;;
49488;SDS011;35382;51.484;11.476;2022-12-17T03:30:58;52.28;;;26.27;;
49488;SDS011;35382;51.484;11.476;2022-12-17T03:32:58;48.72;;;27.40;;
49488;SDS011;35382;51.484;11.476;2022-12-17T03:34:58;49.30;;;27.25;;
49488;SDS011;35382;51.484;11.476;2022-12-17T03:36:57;51.92;;;28.38;;
49488;SDS011;35382;51.484;11.476;2022-12-17T03:38:57;52.72;;;28.63;;
49488;SDS011;35382;51.484;11.476;2022-12-17T03:40:56;51.25;;;28.63;;
49488;SDS011;35382;51.484;11.476;2022-12-17T03:42:56;61.58;;;29.88;;
49488;SDS011;35382;51.484;11.476;2022-12-17T03:45:21;52.05;;;28.80;;
49488;SDS011;35382;51.484;11.476;2022-12-17T03:47:20;52.80;;;28.20;;
49488;SDS011;35382;51.484;11.476;2022-12-17T03:49:20;53.75;;;29.42;;
49488;SDS011;35382;51.484;11.476;2022-12-17T03:51:19;52.55;;;28.88;;
49488;SDS011;35382;51.484;11.476;2022-12-17T03:53:19;56.75;;;30.17;;
49488;SDS011;35382;51.484;11.476;2022-12-17T03:55:35;56.83;;;30.02;;
49488;SDS011;35382;51.484;11.476;2022-12-17T03:57:34;55.20;;;29.23;;
49488;SDS011;35382;51.484;11.476;2022-12-17T03:59:34;45.70;;;27.20;;
49488;SDS011;35382;51.484;11.476;2022-12-17T04:01:33;48.72;;;27.55;;
49488;SDS011;35382;51.484;11.476;2022-12-17T04:03:33;54.28;;;30.73;;
49488;SDS011;35382;51.484;11.476;2022-12-17T04:05:33;51.03;;;28.80;;
49488;SDS011;35382;51.484;11.476;2022-12-17T04:07:32;48.55;;;27.48;;
49488;SDS011;35382;51.484;11.476;2022-12-17T04:09:34;54.65;;;28.13;;
49488;SDS011;35382;51.484;11.476;2022-12-17T04:11:33;55.92;;;29.48;;
49488;SDS011;35382;51.484;11.476;2022-12-17T04:13:33;51.72;;;28.52;;
49488;SDS011;35382;51.484;11.476;2022-12-17T04:15:32;53.22;;;28.33;;
49488;SDS011;35382;51.484;11.476;2022-12-17T04:17:32;48.97;;;28.08;;
49488;SDS011;35382;51.484;11.476;2022-12-17T04:19:32;52.17;;;27.98;;
49488;SDS011;35382;51.484;11.476;2022-12-17T04:21:31;46.53;;;27.13;;
49488;SDS011;35382;51.484;11.476;2022-12-17T04:23:31;52.75;;;28.08;;
49488;SDS011;35382;51.484;11.476;2022-12-17T04:25:30;53.35;;;27.92;;
49488;SDS011;35382;51.484;11.476;2022-12-17T04:30:45;56.28;;;27.30;;
49488;SDS011;35382;51.484;11.476;2022-12-17T04:35:46;51.28;;;27.60;;
49488;SDS011;35382;51.484;11.476;2022-12-17T04:37:46;51.05;;;28.25;;
49488;SDS011;35382;51.484;11.476;2022-12-17T04:39:45;50.13;;;27.98;;
49488;SDS011;35382;51.484;11.476;2022-12-17T04:41:45;50.03;;;28.25;;
49488;SDS011;35382;51.484;11.476;2022-12-17T04:43:45;50.40;;;28.17;;
49488;SDS011;35382;51.484;11.476;2022-12-17T04:45:48;44.97;;;26.48;;
49488;SDS011;35382;51.484;11.476;2022-12-17T04:47:47;54.92;;;28.73;;
49488;SDS011;35382;51.484;11.476;2022-12-17T04:49:47;47.42;;;27.15;;
49488;SDS011;35382;51.484;11.476;2022-12-17T04:51:46;51.60;;;27.73;;
49488;SDS011;35382;51.484;11.476;2022-12-17T04:53:46;50.33;;;27.27;;
49488;SDS011;35382;51.484;11.476;2022-12-17T04:55:47;49.05;;;26.90;;
49488;SDS011;35382;51.484;11.476;2022-12-17T04:57:47;45.78;;;27.15;;
49488;SDS011;35382;51.484;11.476;2022-12-17T04:59:46;50.25;;;27.80;;
49488;SDS011;35382;51.484;11.476;2022-12-17T05:01:46;45.45;;;26.75;;
49488;SDS011;35382;51.484;11.476;2022-12-17T05:03:45;46.17;;;27.42;;
49488;SDS011;35382;51.484;11.476;2022-12-17T05:05:45;44.83;;;25.52;;
49488;SDS011;35382;51.484;11.476;2022-12-17T05:07:44;48.35;;;27.15;;
49488;SDS011;35382;51.484;11.476;2022-12-17T05:09:47;50.83;;;28.73;;
49488;SDS011;35382;51.484;11.476;2022-12-17T05:11:46;47.08;;;26.25;;
49488;SDS011;35382;51.484;11.476;2022-12-17T05:13:45;45.95;;;27.60;;
49488;SDS011;35382;51.484;11.476;2022-12-17T05:15:45;49.65;;;27.55;;
49488;SDS011;35382;51.484;11.476;2022-12-17T05:17:45;52.03;;;26.85;;
49488;SDS011;35382;51.484;11.476;2022-12-17T05:19:47;47.58;;;26.50;;
49488;SDS011;35382;51.484;11.476;2022-12-17T05:21:47;50.15;;;27.23;;
49488;SDS011;35382;51.484;11.476;2022-12-17T05:23:47;48.53;;;27.02;;
49488;SDS011;35382;51.484;11.476;2022-12-17T05:25:46;50.97;;;26.85;;
49488;SDS011;35382;51.484;11.476;2022-12-17T05:27:46;45.03;;;26.30;;
49488;SDS011;35382;51.484;11.476;2022-12-17T05:29:48;48.88;;;27.80;;
49488;SDS011;35382;51.484;11.476;2022-12-17T05:31:48;45.92;;;27.30;;
49488;SDS011;35382;51.484;11.476;2022-12-17T05:33:48;48.55;;;28.00;;
49488;SDS011;35382;51.484;11.476;2022-12-17T05:35:47;51.65;;;28.20;;
49488;SDS011;35382;51.484;11.476;2022-12-17T05:37:47;48.05;;;28.25;;
49488;SDS011;35382;51.484;11.476;2022-12-17T05:39:46;48.92;;;26.23;;
49488;SDS011;35382;51.484;11.476;2022-12-17T05:41:46;45.85;;;27.48;;
49488;SDS011;35382;51.484;11.476;2022-12-17T05:43:45;48.30;;;26.92;;
49488;SDS011;35382;51.484;11.476;2022-12-17T05:45:45;45.85;;;26.38;;
49488;SDS011;35382;51.484;11.476;2022-12-17T05:47:46;46.20;;;26.08;;
49488;SDS011;35382;51.484;11.476;2022-12-17T05:49:45;47.38;;;26.05;;
49488;SDS011;35382;51.484;11.476;2022-12-17T05:51:46;46.35;;;27.13;;
49488;SDS011;35382;51.484;11.476;2022-12-17T05:53:45;45.75;;;25.95;;
49488;SDS011;35382;51.484;11.476;2022-12-17T05:55:49;49.67;;;27.13;;
49488;SDS011;35382;51.484;11.476;2022-12-17T05:57:49;44.20;;;25.88;;
49488;SDS011;35382;51.484;11.476;2022-12-17T05:59:49;47.38;;;25.55;;
49488;SDS011;35382;51.484;11.476;2022-12-17T06:01:53;45.95;;;26.48;;
49488;SDS011;35382;51.484;11.476;2022-12-17T06:03:52;48.78;;;27.10;;
49488;SDS011;35382;51.484;11.476;2022-12-17T06:05:52;49.78;;;27.27;;
49488;SDS011;35382;51.484;11.476;2022-12-17T06:08:00;45.15;;;25.05;;
49488;SDS011;35382;51.484;11.476;2022-12-17T06:10:08;50.45;;;27.00;;
49488;SDS011;35382;51.484;11.476;2022-12-17T06:12:08;50.05;;;26.80;;
49488;SDS011;35382;51.484;11.476;2022-12-17T06:14:08;47.70;;;26.40;;
49488;SDS011;35382;51.484;11.476;2022-12-17T06:16:07;50.75;;;26.90;;
49488;SDS011;35382;51.484;11.476;2022-12-17T06:18:07;50.80;;;26.10;;
49488;SDS011;35382;51.484;11.476;2022-12-17T06:20:07;68.50;;;35.65;;
49488;SDS011;35382;51.484;11.476;2022-12-17T06:22:07;71.78;;;35.45;;
49488;SDS011;35382;51.484;11.476;2022-12-17T06:24:06;72.18;;;37.38;;
49488;SDS011;35382;51.484;11.476;2022-12-17T06:40:29;54.95;;;29.77;;
49488;SDS011;35382;51.484;11.476;2022-12-17T06:42:29;57.72;;;32.20;;
49488;SDS011;35382;51.484;11.476;2022-12-17T06:44:28;53.63;;;29.45;;
49488;SDS011;35382;51.484;11.476;2022-12-17T06:46:28;56.00;;;28.33;;
49488;SDS011;35382;51.484;11.476;2022-12-17T06:48:27;50.85;;;28.15;;
49488;SDS011;35382;51.484;11.476;2022-12-17T06:50:27;49.35;;;27.45;;
49488;SDS011;35382;51.484;11.476;2022-12-17T06:52:26;48.33;;;27.92;;
49488;SDS011;35382;51.484;11.476;2022-12-17T06:54:26;52.97;;;28.83;;
49488;SDS011;35382;51.484;11.476;2022-12-17T06:56:26;50.42;;;28.02;;
49488;SDS011;35382;51.484;11.476;2022-12-17T06:58:26;49.65;;;26.55;;
49488;SDS011;35382;51.484;11.476;2022-12-17T07:00:30;51.00;;;26.85;;
49488;SDS011;35382;51.484;11.476;2022-12-17T07:02:29;49.53;;;26.52;;
49488;SDS011;35382;51.484;11.476;2022-12-17T07:04:29;46.45;;;25.48;;
49488;SDS011;35382;51.484;11.476;2022-12-17T07:06:34;50.33;;;26.88;;
49488;SDS011;35382;51.484;11.476;2022-12-17T07:08:34;47.83;;;26.38;;
49488;SDS011;35382;51.484;11.476;2022-12-17T07:10:34;48.97;;;25.10;;
49488;SDS011;35382;51.484;11.476;2022-12-17T07:12:33;46.20;;;25.20;;
49488;SDS011;35382;51.484;11.476;2022-12-17T07:14:33;48.22;;;25.25;;
49488;SDS011;35382;51.484;11.476;2022-12-17T07:16:33;46.40;;;25.30;;
49488;SDS011;35382;51.484;11.476;2022-12-17T07:18:32;55.45;;;27.25;;
49488;SDS011;35382;51.484;11.476;2022-12-17T07:20:31;56.72;;;28.17;;
49488;SDS011;35382;51.484;11.476;2022-12-17T07:22:31;56.63;;;28.02;;
49488;SDS011;35382;51.484;11.476;2022-12-17T07:24:31;62.22;;;28.85;;
49488;SDS011;35382;51.484;11.476;2022-12-17T07:26:30;54.70;;;28.50;;
49488;SDS011;35382;51.484;11.476;2022-12-17T07:28:30;55.83;;;29.15;;
49488;SDS011;35382;51.484;11.476;2022-12-17T07:30:30;52.97;;;27.42;;
49488;SDS011;35382;51.484;11.476;2022-12-17T07:32:29;55.65;;;27.98;;
49488;SDS011;35382;51.484;11.476;2022-12-17T07:34:29;61.03;;;29.33;;
49488;SDS011;35382;51.484;11.476;2022-12-17T07:36:28;60.55;;;29.98;;
49488;SDS011;35382;51.484;11.476;2022-12-17T07:38:28;59.88;;;30.08;;
49488;SDS011;35382;51.484;11.476;2022-12-17T07:43:27;53.22;;;26.27;;
49488;SDS011;35382;51.484;11.476;2022-12-17T07:45:26;54.22;;;26.80;;
49488;SDS011;35382;51.484;11.476;2022-12-17T07:47:26;45.13;;;24.50;;
49488;SDS011;35382;51.484;11.476;2022-12-17T07:49:25;58.50;;;30.05;;
49488;SDS011;35382;51.484;11.476;2022-12-17T07:51:25;77.10;;;33.83;;
49488;SDS011;35382;51.484;11.476;2022-12-17T07:53:24;79.25;;;35.08;;
49488;SDS011;35382;51.484;11.476;2022-12-17T07:55:24;66.65;;;30.27;;
49488;SDS011;35382;51.484;11.476;2022-12-17T07:57:24;64.25;;;32.05;;
49488;SDS011;35382;51.484;11.476;2022-12-17T07:59:24;68.93;;;31.27;;
49488;SDS011;35382;51.484;11.476;2022-12-17T08:01:23;68.10;;;30.85;;
49488;SDS011;35382;51.484;11.476;2022-12-17T08:03:23;60.13;;;30.13;;
49488;SDS011;35382;51.484;11.476;2022-12-17T08:05:23;77.75;;;34.47;;
49488;SDS011;35382;51.484;11.476;2022-12-17T08:07:23;84.55;;;35.20;;
49488;SDS011;35382;51.484;11.476;2022-12-17T08:09:23;77.35;;;34.88;;
49488;SDS011;35382;51.484;11.476;2022-12-17T08:11:42;70.28;;;34.38;;
49488;SDS011;35382;51.484;11.476;2022-12-17T08:13:43;62.42;;;31.23;;
49488;SDS011;35382;51.484;11.476;2022-12-17T08:15:43;62.75;;;32.17;;
49488;SDS011;35382;51.484;11.476;2022-12-17T08:17:42;66.72;;;32.17;;
49488;SDS011;35382;51.484;11.476;2022-12-17T08:19:42;62.90;;;31.60;;
49488;SDS011;35382;51.484;11.476;2022-12-17T08:21:41;57.88;;;28.25;;
49488;SDS011;35382;51.484;11.476;2022-12-17T08:23:41;57.00;;;29.70;;
49488;SDS011;35382;51.484;11.476;2022-12-17T08:25:41;56.67;;;28.90;;
49488;SDS011;35382;51.484;11.476;2022-12-17T08:27:40;58.53;;;27.45;;
49488;SDS011;35382;51.484;11.476;2022-12-17T08:29:40;56.72;;;27.30;;
49488;SDS011;35382;51.484;11.476;2022-12-17T08:31:39;58.05;;;27.75;;
49488;SDS011;35382;51.484;11.476;2022-12-17T08:33:39;59.45;;;29.85;;
49488;SDS011;35382;51.484;11.476;2022-12-17T08:35:38;74.88;;;36.05;;
49488;SDS011;35382;51.484;11.476;2022-12-17T08:37:41;71.72;;;33.97;;
49488;SDS011;35382;51.484;11.476;2022-12-17T08:39:41;65.93;;;32.08;;
49488;SDS011;35382;51.484;11.476;2022-12-17T08:41:40;64.35;;;31.73;;
49488;SDS011;35382;51.484;11.476;2022-12-17T08:43:40;71.10;;;33.55;;
49488;SDS011;35382;51.484;11.476;2022-12-17T08:45:44;76.35;;;35.30;;
49488;SDS011;35382;51.484;11.476;2022-12-17T08:50:48;62.50;;;31.38;;
49488;SDS011;35382;51.484;11.476;2022-12-17T08:52:48;65.72;;;31.92;;
49488;SDS011;35382;51.484;11.476;2022-12-17T08:54:48;83.40;;;41.20;;
49488;SDS011;35382;51.484;11.476;2022-12-17T08:56:47;94.68;;;46.13;;
49488;SDS011;35382;51.484;11.476;2022-12-17T08:58:47;90.32;;;40.95;;
49488;SDS011;35382;51.484;11.476;2022-12-17T09:00:47;89.45;;;41.03;;
49488;SDS011;35382;51.484;11.476;2022-12-17T09:05:39;101.50;;;45.95;;
49488;SDS011;35382;51.484;11.476;2022-12-17T09:07:38;99.90;;;43.67;;
49488;SDS011;35382;51.484;11.476;2022-12-17T09:09:38;73.07;;;37.40;;
49488;SDS011;35382;51.484;11.476;2022-12-17T09:11:37;71.90;;;35.60;;
49488;SDS011;35382;51.484;11.476;2022-12-17T09:13:37;64.50;;;32.53;;
49488;SDS011;35382;51.484;11.476;2022-12-17T09:16:01;65.75;;;31.17;;
49488;SDS011;35382;51.484;11.476;2022-12-17T09:25:31;65.07;;;33.60;;
49488;SDS011;35382;51.484;11.476;2022-12-17T09:27:31;67.68;;;35.00;;
49488;SDS011;35382;51.484;11.476;2022-12-17T09:29:31;64.97;;;34.30;;
49488;SDS011;35382;51.484;11.476;2022-12-17T09:31:31;62.25;;;33.95;;
49488;SDS011;35382;51.484;11.476;2022-12-17T09:33:31;67.32;;;35.50;;
49488;SDS011;35382;51.484;11.476;2022-12-17T09:35:32;74.10;;;38.78;;
49488;SDS011;35382;51.484;11.476;2022-12-17T09:37:32;70.18;;;39.05;;
49488;SDS011;35382;51.484;11.476;2022-12-17T09:39:31;65.50;;;36.45;;
49488;SDS011;35382;51.484;11.476;2022-12-17T09:41:37;70.93;;;37.97;;
49488;SDS011;35382;51.484;11.476;2022-12-17T09:43:57;69.72;;;37.95;;
49488;SDS011;35382;51.484;11.476;2022-12-17T09:46:01;72.97;;;39.42;;
49488;SDS011;35382;51.484;11.476;2022-12-17T09:48:30;71.68;;;39.92;;
49488;SDS011;35382;51.484;11.476;2022-12-17T09:50:31;65.38;;;36.80;;
49488;SDS011;35382;51.484;11.476;2022-12-17T09:52:33;64.32;;;37.15;;
49488;SDS011;35382;51.484;11.476;2022-12-17T09:56:40;60.42;;;34.92;;
49488;SDS011;35382;51.484;11.476;2022-12-17T09:58:41;58.10;;;33.75;;
49488;SDS011;35382;51.484;11.476;2022-12-17T10:00:41;53.80;;;31.45;;
49488;SDS011;35382;51.484;11.476;2022-12-17T10:02:40;56.90;;;32.10;;
49488;SDS011;35382;51.484;11.476;2022-12-17T10:04:41;59.35;;;33.15;;
49488;SDS011;35382;51.484;11.476;2022-12-17T10:06:44;51.58;;;28.75;;
49488;SDS011;35382;51.484;11.476;2022-12-17T10:08:43;54.22;;;28.83;;
49488;SDS011;35382;51.484;11.476;2022-12-17T10:10:44;48.70;;;28.98;;
49488;SDS011;35382;51.484;11.476;2022-12-17T10:12:44;45.88;;;27.13;;
49488;SDS011;35382;51.484;11.476;2022-12-17T10:17:45;45.53;;;26.35;;
49488;SDS011;35382;51.484;11.476;2022-12-17T10:19:45;49.90;;;27.52;;
49488;SDS011;35382;51.484;11.476;2022-12-17T10:21:49;56.05;;;28.38;;
49488;SDS011;35382;51.484;11.476;2022-12-17T10:23:48;47.08;;;26.40;;
49488;SDS011;35382;51.484;11.476;2022-12-17T10:28:26;48.00;;;26.48;;
49488;SDS011;35382;51.484;11.476;2022-12-17T10:33:35;46.20;;;26.73;;
49488;SDS011;35382;51.484;11.476;2022-12-17T10:36:21;42.70;;;25.40;;
49488;SDS011;35382;51.484;11.476;2022-12-17T10:38:23;38.83;;;23.13;;
49488;SDS011;35382;51.484;11.476;2022-12-17T10:40:26;36.35;;;22.48;;
49488;SDS011;35382;51.484;11.476;2022-12-17T10:42:29;44.63;;;23.88;;
49488;SDS011;35382;51.484;11.476;2022-12-17T10:44:36;35.60;;;23.40;;
49488;SDS011;35382;51.484;11.476;2022-12-17T10:46:36;41.85;;;23.88;;
49488;SDS011;35382;51.484;11.476;2022-12-17T10:48:36;44.05;;;24.98;;
49488;SDS011;35382;51.484;11.476;2022-12-17T10:50:39;46.28;;;25.63;;
49488;SDS011;35382;51.484;11.476;2022-12-17T10:52:42;43.75;;;25.17;;
49488;SDS011;35382;51.484;11.476;2022-12-17T10:54:53;43.13;;;25.08;;
49488;SDS011;35382;51.484;11.476;2022-12-17T10:56:55;39.85;;;25.58;;
49488;SDS011;35382;51.484;11.476;2022-12-17T10:59:01;39.22;;;22.98;;
49488;SDS011;35382;51.484;11.476;2022-12-17T11:01:01;42.83;;;24.48;;
49488;SDS011;35382;51.484;11.476;2022-12-17T11:03:02;39.25;;;24.38;;
49488;SDS011;35382;51.484;11.476;2022-12-17T11:05:02;41.50;;;25.27;;
49488;SDS011;35382;51.484;11.476;2022-12-17T11:07:02;42.53;;;24.20;;
49488;SDS011;35382;51.484;11.476;2022-12-17T11:09:02;43.95;;;26.52;;
49488;SDS011;35382;51.484;11.476;2022-12-17T11:11:03;47.08;;;24.90;;
49488;SDS011;35382;51.484;11.476;2022-12-17T11:13:10;42.25;;;24.05;;
49488;SDS011;35382;51.484;11.476;2022-12-17T11:17:34;44.13;;;23.25;;
49488;SDS011;35382;51.484;11.476;2022-12-17T11:19:41;40.95;;;24.10;;
49488;SDS011;35382;51.484;11.476;2022-12-17T11:21:47;39.80;;;23.33;;
49488;SDS011;35382;51.484;11.476;2022-12-17T11:23:50;41.47;;;23.27;;
49488;SDS011;35382;51.484;11.476;2022-12-17T11:25:55;43.17;;;23.98;;
49488;SDS011;35382;51.484;11.476;2022-12-17T11:28:11;37.25;;;22.08;;
49488;SDS011;35382;51.484;11.476;2022-12-17T11:30:15;40.95;;;23.80;;
49488;SDS011;35382;51.484;11.476;2022-12-17T11:32:38;39.25;;;21.92;;
49488;SDS011;35382;51.484;11.476;2022-12-17T11:35:02;37.22;;;22.70;;
49488;SDS011;35382;51.484;11.476;2022-12-17T11:41:11;38.08;;;22.13;;
49488;SDS011;35382;51.484;11.476;2022-12-17T11:45:27;38.28;;;21.55;;
49488;SDS011;35382;51.484;11.476;2022-12-17T11:57:16;39.85;;;25.20;;
49488;SDS011;35382;51.484;11.476;2022-12-17T11:59:32;39.30;;;23.92;;
49488;SDS011;35382;51.484;11.476;2022-12-17T12:01:39;37.35;;;23.50;;
49488;SDS011;35382;51.484;11.476;2022-12-17T12:06:16;40.33;;;23.63;;
49488;SDS011;35382;51.484;11.476;2022-12-17T12:11:39;37.45;;;23.30;;
49488;SDS011;35382;51.484;11.476;2022-12-17T12:13:56;41.83;;;24.98;;
49488;SDS011;35382;51.484;11.476;2022-12-17T12:16:24;39.35;;;24.75;;
49488;SDS011;35382;51.484;11.476;2022-12-17T12:18:37;37.67;;;22.92;;
49488;SDS011;35382;51.484;11.476;2022-12-17T12:20:55;42.45;;;24.55;;
49488;SDS011;35382;51.484;11.476;2022-12-17T12:25:41;45.20;;;25.00;;
49488;SDS011;35382;51.484;11.476;2022-12-17T12:28:04;44.33;;;23.83;;
49488;SDS011;35382;51.484;11.476;2022-12-17T12:30:21;42.55;;;24.65;;
49488;SDS011;35382;51.484;11.476;2022-12-17T12:32:40;41.80;;;23.88;;
49488;SDS011;35382;51.484;11.476;2022-12-17T12:34:49;42.50;;;24.70;;
49488;SDS011;35382;51.484;11.476;2022-12-17T12:36:50;42.40;;;24.77;;
49488;SDS011;35382;51.484;11.476;2022-12-17T12:38:52;44.28;;;24.92;;
49488;SDS011;35382;51.484;11.476;2022-12-17T12:41:01;43.30;;;25.48;;
49488;SDS011;35382;51.484;11.476;2022-12-17T12:43:10;40.90;;;26.20;;
49488;SDS011;35382;51.484;11.476;2022-12-17T12:48:20;44.40;;;25.10;;
49488;SDS011;35382;51.484;11.476;2022-12-17T12:50:50;42.60;;;24.02;;
49488;SDS011;35382;51.484;11.476;2022-12-17T12:52:56;42.17;;;23.88;;
49488;SDS011;35382;51.484;11.476;2022-12-17T12:54:58;36.50;;;23.80;;
49488;SDS011;35382;51.484;11.476;2022-12-17T12:56:57;42.28;;;25.17;;
49488;SDS011;35382;51.484;11.476;2022-12-17T12:58:57;42.10;;;25.25;;
49488;SDS011;35382;51.484;11.476;2022-12-17T13:00:56;37.67;;;22.38;;
49488;SDS011;35382;51.484;11.476;2022-12-17T13:03:05;44.85;;;24.75;;
49488;SDS011;35382;51.484;11.476;2022-12-17T13:07:21;39.80;;;24.80;;
49488;SDS011;35382;51.484;11.476;2022-12-17T13:09:16;40.97;;;24.23;;
49488;SDS011;35382;51.484;11.476;2022-12-17T13:18:32;43.17;;;26.45;;
49488;SDS011;35382;51.484;11.476;2022-12-17T13:20:23;39.47;;;24.92;;
49488;SDS011;35382;51.484;11.476;2022-12-17T13:23:50;41.75;;;25.00;;
49488;SDS011;35382;51.484;11.476;2022-12-17T13:25:31;41.80;;;26.25;;
49488;SDS011;35382;51.484;11.476;2022-12-17T13:29:33;40.67;;;25.05;;
49488;SDS011;35382;51.484;11.476;2022-12-17T13:31:19;43.40;;;26.08;;
49488;SDS011;35382;51.484;11.476;2022-12-17T13:37:02;37.60;;;23.10;;
49488;SDS011;35382;51.484;11.476;2022-12-17T13:48:15;39.47;;;24.33;;
49488;SDS011;35382;51.484;11.476;2022-12-17T13:50:03;41.45;;;24.30;;
49488;SDS011;35382;51.484;11.476;2022-12-17T13:52:06;40.72;;;23.25;;
49488;SDS011;35382;51.484;11.476;2022-12-17T13:53:55;40.17;;;24.40;;
49488;SDS011;35382;51.484;11.476;2022-12-17T13:55:48;41.22;;;25.15;;
49488;SDS011;35382;51.484;11.476;2022-12-17T13:57:31;39.42;;;23.52;;
49488;SDS011;35382;51.484;11.476;2022-12-17T13:59:21;41.17;;;24.10;;
49488;SDS011;35382;51.484;11.476;2022-12-17T14:01:07;37.50;;;22.67;;
49488;SDS011;35382;51.484;11.476;2022-12-17T14:02:53;37.50;;;22.55;;
49488;SDS011;35382;51.484;11.476;2022-12-17T14:04:35;34.13;;;22.95;;
49488;SDS011;35382;51.484;11.476;2022-12-17T14:09:06;39.63;;;22.77;;
49488;SDS011;35382;51.484;11.476;2022-12-17T14:10:57;34.20;;;21.70;;
49488;SDS011;35382;51.484;11.476;2022-12-17T14:12:59;37.30;;;22.75;;
49488;SDS011;35382;51.484;11.476;2022-12-17T14:14:51;39.75;;;23.38;;
49488;SDS011;35382;51.484;11.476;2022-12-17T14:16:35;37.08;;;22.48;;
49488;SDS011;35382;51.484;11.476;2022-12-17T14:18:17;38.42;;;22.25;;
49488;SDS011;35382;51.484;11.476;2022-12-17T14:20:01;39.22;;;23.17;;
49488;SDS011;35382;51.484;11.476;2022-12-17T14:21:45;37.60;;;23.23;;
49488;SDS011;35382;51.484;11.476;2022-12-17T14:23:28;39.60;;;23.02;;
49488;SDS011;35382;51.484;11.476;2022-12-17T14:25:23;42.50;;;22.10;;
49488;SDS011;35382;51.484;11.476;2022-12-17T14:29:28;37.30;;;22.25;;